Time;durP1;ratioP1;P1;durP2;ratioP2;P2;SDS_P1;SDS_P2;PMS_P1;PMS_P2;Temp;Humidity;BMP_temperature;BMP_pressure;BME280_temperature;BME280_humidity;BME280_pressure;Samples;Min_cycle;Max_cycle;Signal;HPM_P1;HPM_P2
2023/12/21 00:00:57;;;;;;;;;;;;;;;18.20;45.70;99953.03;5068757;28;1100;-59
2023/12/21 00:03:22;;;;;;;;;;;;;;;17.70;46.48;99953.66;5076714;28;999;-61
2023/12/21 00:05:48;;;;;;;;;;;;;;;18.22;46.03;99948.06;5062071;28;1051;-59
2023/12/21 00:08:13;;;;;;;;;;;;;;;18.60;44.32;99945.91;5064306;28;1968;-62
2023/12/21 00:10:39;;;;;;;;;;;;;;;15.64;52.88;99956.19;5076240;28;1034;-61
2023/12/21 00:13:04;;;;;;;;;;;;;;;18.67;44.74;99959.28;5075800;28;1012;-61
2023/12/21 00:15:30;;;;;;;;;;;;;;;18.06;45.92;99953.03;5075262;28;1004;-62
2023/12/21 00:17:55;;;;;;;;;;;;;;;17.41;46.66;99947.22;5063906;28;1159;-60
2023/12/21 00:20:21;;;;;;;;;;;;;;;17.18;46.12;99946.22;5062508;28;1020;-61
2023/12/21 00:22:46;;;;;;;;;;;;;;;17.03;45.98;99950.00;5063996;28;1086;-60
2023/12/21 00:25:12;;;;;;;;;;;;;;;17.26;46.29;99951.06;5068649;28;2640;-59
2023/12/21 00:27:37;;;;;;;;;;;;;;;17.90;46.03;99950.53;5076400;28;1973;-60
2023/12/21 00:30:04;;;;;;;;;;;;;;;17.32;47.13;99951.78;5075700;28;1050;-60
2023/12/21 00:32:29;;;;;;;;;;;;;;;18.88;44.54;99947.84;5063548;28;1083;-60
2023/12/21 00:34:55;;;;;;;;;;;;;;;17.92;46.36;99953.00;5062724;28;984;-59
2023/12/21 00:37:21;;;;;;;;;;;;;;;17.35;46.62;99942.94;5063562;28;1186;-60
2023/12/21 00:39:46;;;;;;;;;;;;;;;17.23;46.00;99943.38;5076096;28;1035;-61
2023/12/21 00:42:12;;;;;;;;;;;;;;;17.87;46.54;99939.34;5076531;28;1110;-61
2023/12/21 00:44:37;;;;;;;;;;;;;;;17.38;46.61;99933.28;5075947;28;1050;-60
2023/12/21 00:47:03;;;;;;;;;;;;;;;17.60;47.07;99927.97;5076280;28;1968;-60
2023/12/21 00:49:29;;;;;;;;;;;;;;;17.74;46.32;99933.50;5070296;28;1026;-60
2023/12/21 00:51:54;;;;;;;;;;;;;;;17.23;46.70;99942.56;5068784;28;1103;-60
2023/12/21 00:54:19;;;;;;;;;;;;;;;18.42;45.49;99933.06;5066219;28;2468;-61
2023/12/21 00:56:45;;;;;;;;;;;;;;;17.51;46.81;99932.50;5069619;28;1101;-60
2023/12/21 00:59:11;;;;;;;;;;;;;;;17.42;47.53;99935.13;5069297;28;1059;-58
2023/12/21 01:01:36;;;;;;;;;;;;;;;17.92;46.12;99937.34;5069161;28;1036;-59
2023/12/21 01:04:02;;;;;;;;;;;;;;;17.23;46.54;99926.09;5069472;28;1084;-61
2023/12/21 01:06:27;;;;;;;;;;;;;;;18.15;46.25;99925.66;5075311;28;1747;-60
2023/12/21 01:08:53;;;;;;;;;;;;;;;17.43;46.93;99931.28;5063053;28;1976;-62
2023/12/21 01:11:18;;;;;;;;;;;;;;;17.14;46.51;99930.63;5075218;28;1070;-59
2023/12/21 01:13:44;;;;;;;;;;;;;;;18.07;46.21;99927.97;5068876;28;1079;-58
2023/12/21 01:16:09;;;;;;;;;;;;;;;17.24;46.91;99936.78;5075920;28;1130;-61
2023/12/21 01:18:35;;;;;;;;;;;;;;;17.36;47.13;99933.59;5075879;28;1310;-61
2023/12/21 01:21:00;;;;;;;;;;;;;;;17.69;46.67;99933.56;5075616;28;1166;-62
2023/12/21 01:23:26;;;;;;;;;;;;;;;17.35;47.31;99928.38;5074287;28;2366;-62
2023/12/21 01:25:51;;;;;;;;;;;;;;;18.96;44.09;99936.09;5065519;28;1024;-62
2023/12/21 01:28:17;;;;;;;;;;;;;;;17.73;46.51;99940.09;5079985;28;1911;-62
2023/12/21 01:30:42;;;;;;;;;;;;;;;17.30;46.08;99933.97;5060726;28;1135;-62
2023/12/21 01:33:08;;;;;;;;;;;;;;;17.21;46.58;99934.63;5072790;28;1016;-61
2023/12/21 01:35:33;;;;;;;;;;;;;;;17.90;46.24;99933.22;5073526;28;1067;-63
2023/12/21 01:37:59;;;;;;;;;;;;;;;17.27;46.70;99927.94;5048167;28;1164;-63
2023/12/21 01:40:25;;;;;;;;;;;;;;;17.04;46.20;99934.34;5079469;28;1123;-63
2023/12/21 01:42:50;;;;;;;;;;;;;;;17.75;46.91;99943.38;5079509;28;1502;-62
2023/12/21 01:45:16;;;;;;;;;;;;;;;17.31;47.05;99930.09;5066087;28;1000;-62
2023/12/21 01:47:41;;;;;;;;;;;;;;;17.03;46.62;99924.47;5079550;28;1983;-61
2023/12/21 01:50:07;;;;;;;;;;;;;;;17.01;46.66;99921.19;5061124;28;1121;-61
2023/12/21 01:52:33;;;;;;;;;;;;;;;17.92;46.49;99925.50;5066237;28;1112;-61
2023/12/21 01:54:58;;;;;;;;;;;;;;;17.06;46.96;99921.94;5078611;28;2486;-61
2023/12/21 01:57:24;;;;;;;;;;;;;;;17.11;47.22;99923.81;5061426;28;1020;-61
2023/12/21 01:59:51;;;;;;;;;;;;;;;17.71;46.97;99931.34;5072931;28;1023;-61
2023/12/21 02:02:16;;;;;;;;;;;;;;;17.26;47.49;99925.50;5065138;28;1001;-62
2023/12/21 02:04:42;;;;;;;;;;;;;;;18.75;44.83;99931.00;5078653;28;988;-61
2023/12/21 02:07:07;;;;;;;;;;;;;;;17.83;46.52;99917.13;5078764;28;1898;-62
2023/12/21 02:09:33;;;;;;;;;;;;;;;17.34;46.34;99916.56;5065999;28;1147;-61
2023/12/21 02:11:58;;;;;;;;;;;;;;;18.02;46.28;99925.34;5078752;28;1202;-61
2023/12/21 02:14:24;;;;;;;;;;;;;;;17.57;46.91;99922.25;5078962;28;1215;-61
2023/12/21 02:16:59;;;;;;;;;;;;;;;17.19;46.65;99914.88;5079180;28;1031;-62
2023/12/21 02:19:25;;;;;;;;;;;;;;;18.30;45.95;99914.34;5066827;28;1064;-62
2023/12/21 02:21:50;;;;;;;;;;;;;;;17.40;46.94;99914.56;5077694;28;1051;-61
2023/12/21 02:24:19;;;;;;;;;;;;;;;17.43;47.06;99917.53;5042745;28;2600;-61
2023/12/21 02:26:44;;;;;;;;;;;;;;;17.73;46.59;99923.59;5055223;28;1909;-62
2023/12/21 02:29:10;;;;;;;;;;;;;;;17.17;47.02;99911.63;5078669;28;1067;-61
2023/12/21 02:31:36;;;;;;;;;;;;;;;16.94;46.13;99916.06;5078514;28;980;-61
2023/12/21 02:34:01;;;;;;;;;;;;;;;17.53;47.14;99921.22;5070301;28;1131;-61
2023/12/21 02:36:27;;;;;;;;;;;;;;;17.69;46.70;99914.34;5072473;28;1096;-61
2023/12/21 02:38:53;;;;;;;;;;;;;;;17.16;47.50;99920.16;5068255;28;914;-64
2023/12/21 02:41:19;;;;;;;;;;;;;;;18.75;44.88;99920.00;5065220;28;991;-63
2023/12/21 02:43:45;;;;;;;;;;;;;;;17.68;46.42;99915.44;5078332;28;940;-63
2023/12/21 02:46:10;;;;;;;;;;;;;;;17.30;46.32;99910.03;5078118;28;1148;-63
2023/12/21 02:48:35;;;;;;;;;;;;;;;17.02;45.92;99909.09;5065535;28;1914;-63
2023/12/21 02:51:01;;;;;;;;;;;;;;;18.34;45.75;99920.88;5067204;28;1035;-63
2023/12/21 02:53:26;;;;;;;;;;;;;;;17.41;46.91;99911.50;5078135;28;2480;-62
2023/12/21 02:55:52;;;;;;;;;;;;;;;17.01;46.84;99915.72;5077999;28;1015;-63
2023/12/21 02:58:17;;;;;;;;;;;;;;;18.34;45.86;99907.09;5065509;28;988;-63
2023/12/21 03:00:43;;;;;;;;;;;;;;;17.37;47.00;99907.72;5065108;28;1190;-62
2023/12/21 03:03:08;;;;;;;;;;;;;;;17.74;47.28;99911.50;5070986;28;898;-62
2023/12/21 03:05:34;;;;;;;;;;;;;;;18.17;45.89;99913.19;5071483;28;1083;-63
2023/12/21 03:08:00;;;;;;;;;;;;;;;17.41;46.82;99908.75;5077335;28;1973;-61
2023/12/21 03:10:25;;;;;;;;;;;;;;;18.52;45.32;99910.03;5077998;28;1030;-62
2023/12/21 03:12:51;;;;;;;;;;;;;;;17.72;46.60;99912.91;5064903;28;1126;-62
2023/12/21 03:15:16;;;;;;;;;;;;;;;17.29;46.71;99902.91;5066673;28;1075;-62
2023/12/21 03:17:41;;;;;;;;;;;;;;;18.00;46.20;99897.28;5077718;28;1036;-62
2023/12/21 03:20:07;;;;;;;;;;;;;;;17.31;46.85;99905.38;5064905;28;988;-62
2023/12/21 03:22:34;;;;;;;;;;;;;;;17.07;46.13;99909.03;5071049;28;1202;-62
2023/12/21 03:24:59;;;;;;;;;;;;;;;18.34;46.00;99912.59;5060148;28;2517;-62
2023/12/21 03:27:25;;;;;;;;;;;;;;;17.56;46.89;99913.19;5071764;28;1917;-62
2023/12/21 03:29:50;;;;;;;;;;;;;;;17.77;46.87;99918.34;5077663;28;996;-62
2023/12/21 03:32:16;;;;;;;;;;;;;;;18.38;45.33;99916.34;5057858;28;1134;-62
2023/12/21 03:34:41;;;;;;;;;;;;;;;17.50;46.49;99913.56;5070721;28;1138;-62
2023/12/21 03:37:07;;;;;;;;;;;;;;;18.53;45.44;99922.69;5077124;28;1012;-62
2023/12/21 03:39:33;;;;;;;;;;;;;;;17.78;46.55;99920.78;5077488;28;1086;-62
2023/12/21 03:41:59;;;;;;;;;;;;;;;17.42;46.22;99924.13;5063545;28;1174;-62
2023/12/21 03:44:25;;;;;;;;;;;;;;;17.67;46.76;99930.34;5077305;28;1070;-62
2023/12/21 03:46:50;;;;;;;;;;;;;;;17.79;46.49;99932.59;5076191;28;1983;-62
2023/12/21 03:49:16;;;;;;;;;;;;;;;17.26;46.81;99925.50;5077355;28;991;-62
2023/12/21 03:51:41;;;;;;;;;;;;;;;18.80;44.77;99941.91;5076564;28;1028;-61
2023/12/21 03:54:07;;;;;;;;;;;;;;;17.67;46.47;99930.34;5068380;28;2265;-62
2023/12/21 03:56:32;;;;;;;;;;;;;;;17.32;46.02;99927.06;5062783;28;1063;-62
2023/12/21 03:58:58;;;;;;;;;;;;;;;17.08;45.61;99935.38;5077184;28;1119;-61
2023/12/21 04:01:26;;;;;;;;;;;;;;;18.11;46.34;99940.00;5076857;28;1181;-61
2023/12/21 04:03:52;;;;;;;;;;;;;;;17.43;46.74;99934.03;5076671;28;903;-61
2023/12/21 04:06:17;;;;;;;;;;;;;;;17.04;46.48;99940.66;5057828;28;1011;-61
2023/12/21 04:08:43;;;;;;;;;;;;;;;18.35;45.54;99944.50;5069174;28;1973;-61
2023/12/21 04:11:08;;;;;;;;;;;;;;;17.41;46.78;99944.47;5070641;28;1141;-61
2023/12/21 04:13:34;;;;;;;;;;;;;;;17.01;46.37;99938.53;5068655;28;1091;-61
2023/12/21 04:15:59;;;;;;;;;;;;;;;18.25;45.86;99945.50;5068355;28;1058;-62
2023/12/21 04:18:25;;;;;;;;;;;;;;;17.43;46.87;99946.94;5064752;28;1098;-62
2023/12/21 04:20:50;;;;;;;;;;;;;;;18.15;46.30;99951.22;5056686;28;1035;-59
2023/12/21 04:23:16;;;;;;;;;;;;;;;18.13;45.93;99957.03;5067350;28;1872;-60
2023/12/21 04:25:41;;;;;;;;;;;;;;;17.36;46.61;99947.34;5069895;28;1237;-60
2023/12/21 04:28:07;;;;;;;;;;;;;;;17.13;46.28;99961.97;5056338;28;1980;-60
2023/12/21 04:30:32;;;;;;;;;;;;;;;17.91;46.39;99965.16;5075217;28;1167;-61
2023/12/21 04:32:58;;;;;;;;;;;;;;;17.47;46.99;99974.63;5063942;28;1028;-62
2023/12/21 04:35:23;;;;;;;;;;;;;;;17.05;46.54;99969.75;5061756;28;1258;-61
2023/12/21 04:37:49;;;;;;;;;;;;;;;17.08;46.87;99974.66;5064755;28;1125;-61
2023/12/21 04:40:15;;;;;;;;;;;;;;;17.65;46.80;99982.03;5060503;28;1227;-60
2023/12/21 04:42:42;;;;;;;;;;;;;;;17.13;47.06;99989.44;5056102;28;1263;-60
2023/12/21 04:45:08;;;;;;;;;;;;;;;18.67;44.81;99988.75;5074568;28;1259;-60
2023/12/21 04:47:33;;;;;;;;;;;;;;;17.66;46.45;99993.88;5075957;28;1893;-60
2023/12/21 04:49:59;;;;;;;;;;;;;;;17.08;46.45;99991.16;5075951;28;1018;-57
2023/12/21 04:52:24;;;;;;;;;;;;;;;16.97;45.70;99983.31;5061679;28;853;-59
2023/12/21 04:54:50;;;;;;;;;;;;;;;18.02;46.05;99991.34;5070280;28;2274;-60
2023/12/21 04:57:15;;;;;;;;;;;;;;;17.17;46.97;99996.78;5076086;28;1106;-60
2023/12/21 04:59:41;;;;;;;;;;;;;;;18.18;46.00;99991.88;5070894;28;1082;-60
2023/12/21 05:02:07;;;;;;;;;;;;;;;17.84;46.45;99990.25;5068047;28;1070;-59
2023/12/21 05:04:32;;;;;;;;;;;;;;;17.23;46.61;99994.78;5072099;28;1150;-61
2023/12/21 05:06:58;;;;;;;;;;;;;;;18.28;45.69;99986.16;5064122;28;1894;-62
2023/12/21 05:09:25;;;;;;;;;;;;;;;17.34;46.79;100001.75;5061105;28;1083;-60
2023/12/21 05:11:50;;;;;;;;;;;;;;;17.16;46.22;99997.88;5075593;28;1210;-59
2023/12/21 05:14:16;;;;;;;;;;;;;;;18.26;45.47;100001.38;5070470;28;1166;-59
2023/12/21 05:16:42;;;;;;;;;;;;;;;17.31;46.70;100002.34;5067175;28;849;-58
2023/12/21 05:19:08;;;;;;;;;;;;;;;17.34;47.14;99999.00;5075562;28;1024;-57
2023/12/21 05:21:33;;;;;;;;;;;;;;;17.56;46.72;100016.84;5072711;28;1067;-57
2023/12/21 05:23:59;;;;;;;;;;;;;;;17.14;46.37;100029.50;5055648;28;2225;-58
2023/12/21 05:26:24;;;;;;;;;;;;;;;17.97;45.50;100027.19;5055836;28;1087;-58
2023/12/21 05:28:50;;;;;;;;;;;;;;;17.39;46.59;100042.91;5065264;28;1902;-57
2023/12/21 05:31:24;;;;;;;;;;;;;;;17.00;47.54;100044.00;5074917;28;1113;-57
2023/12/21 05:33:50;;;;;;;;;;;;;;;16.74;48.39;100047.00;5065037;28;1048;-57
2023/12/21 05:36:22;;;;;;;;;;;;;;;16.42;49.03;100040.22;5073305;28;1147;-57
2023/12/21 05:38:48;;;;;;;;;;;;;;;16.31;49.32;100044.16;5062080;28;1103;-59
2023/12/21 05:41:14;;;;;;;;;;;;;;;16.11;49.78;100049.88;5074721;28;865;-60
2023/12/21 05:43:39;;;;;;;;;;;;;;;16.06;49.66;100053.44;5061905;28;1162;-59
2023/12/21 05:46:05;;;;;;;;;;;;;;;15.94;50.03;100053.84;5062945;28;1066;-59
2023/12/21 05:48:31;;;;;;;;;;;;;;;15.79;50.10;100063.00;5055515;28;1973;-58
2023/12/21 05:50:56;;;;;;;;;;;;;;;15.67;50.36;100055.09;5067899;28;1155;-58
2023/12/21 05:53:22;;;;;;;;;;;;;;;15.62;50.56;100065.28;5074806;28;2301;-58
2023/12/21 05:55:47;;;;;;;;;;;;;;;17.12;47.12;100061.97;5059572;28;1018;-58
2023/12/21 05:58:13;;;;;;;;;;;;;;;16.70;47.83;100067.09;5068651;28;989;-60
2023/12/21 06:00:38;;;;;;;;;;;;;;;16.13;49.41;100072.31;5071248;28;1044;-62
2023/12/21 06:03:04;;;;;;;;;;;;;;;15.89;50.13;100070.31;5075266;28;1055;-61
2023/12/21 06:05:29;;;;;;;;;;;;;;;16.25;49.42;100072.75;5073152;28;890;-59
2023/12/21 06:07:55;;;;;;;;;;;;;;;17.35;46.16;100079.50;5075443;28;1902;-60
2023/12/21 06:10:20;;;;;;;;;;;;;;;16.43;48.25;100083.00;5075781;28;1067;-61
2023/12/21 06:12:46;;;;;;;;;;;;;;;16.08;49.44;100068.50;5078524;28;1118;-64
2023/12/21 06:15:11;;;;;;;;;;;;;;;15.83;49.96;100063.25;5079337;28;1048;-60
2023/12/21 06:17:37;;;;;;;;;;;;;;;16.83;46.96;100058.19;5068962;28;954;-60
2023/12/21 06:20:03;;;;;;;;;;;;;;;17.32;45.46;100064.44;5079017;28;1067;-59
2023/12/21 06:22:28;;;;;;;;;;;;;;;16.40;47.64;100058.91;5079201;28;1051;-62
2023/12/21 06:24:54;;;;;;;;;;;;;;;16.10;48.49;100068.22;5078327;28;1063;-62
2023/12/21 06:27:19;;;;;;;;;;;;;;;15.85;49.00;100072.00;5079414;28;1902;-60
2023/12/21 06:29:45;;;;;;;;;;;;;;;17.08;46.39;100079.03;5061970;28;938;-60
2023/12/21 06:32:10;;;;;;;;;;;;;;;16.88;46.72;100082.00;5078300;28;1031;-59
2023/12/21 06:34:36;;;;;;;;;;;;;;;16.34;48.17;100094.91;5078964;28;1159;-59
2023/12/21 06:37:04;;;;;;;;;;;;;;;15.92;49.17;100094.41;5078838;28;1044;-62
2023/12/21 06:39:33;;;;;;;;;;;;;;;15.78;49.58;100102.47;5061241;28;1130;-59
2023/12/21 06:41:59;;;;;;;;;;;;;;;15.79;49.74;100104.09;5064325;28;1093;-61
2023/12/21 06:44:25;;;;;;;;;;;;;;;17.33;45.79;100101.78;5078250;28;1434;-59
2023/12/21 06:46:51;;;;;;;;;;;;;;;16.72;47.22;100109.63;5072567;28;1898;-59
2023/12/21 06:49:16;;;;;;;;;;;;;;;16.18;48.56;100110.69;5078683;28;1214;-61
2023/12/21 06:51:44;;;;;;;;;;;;;;;15.94;49.09;100111.41;5077428;28;1023;-59
2023/12/21 06:54:10;;;;;;;;;;;;;;;16.59;47.60;100115.78;5076036;28;1142;-60
2023/12/21 06:56:36;;;;;;;;;;;;;;;17.29;45.74;100117.22;5069684;28;1087;-60
2023/12/21 06:59:02;;;;;;;;;;;;;;;16.43;47.73;100115.13;5078001;28;1040;-59
2023/12/21 07:01:27;;;;;;;;;;;;;;;16.03;48.79;100123.44;5078807;28;1139;-60
2023/12/21 07:03:53;;;;;;;;;;;;;;;15.85;49.51;100121.34;5076658;28;1143;-58
2023/12/21 07:06:19;;;;;;;;;;;;;;;16.12;48.91;100131.00;5069717;28;1127;-64
2023/12/21 07:08:44;;;;;;;;;;;;;;;17.56;45.13;100138.59;5074098;28;1917;-65
2023/12/21 07:11:10;;;;;;;;;;;;;;;16.63;47.51;100129.75;5078457;28;1126;-62
2023/12/21 07:13:35;;;;;;;;;;;;;;;16.07;48.94;100140.94;5077936;28;1016;-64
2023/12/21 07:16:01;;;;;;;;;;;;;;;15.79;49.43;100147.97;5076235;28;1066;-64
2023/12/21 07:18:27;;;;;;;;;;;;;;;16.40;48.46;100141.22;5068791;28;1114;-62
2023/12/21 07:20:53;;;;;;;;;;;;;;;17.56;45.24;100148.78;5077200;28;1056;-60
2023/12/21 07:23:18;;;;;;;;;;;;;;;16.53;47.54;100150.69;5068757;28;1221;-58
2023/12/21 07:25:44;;;;;;;;;;;;;;;16.13;48.76;100157.34;5077853;28;1019;-57
2023/12/21 07:28:09;;;;;;;;;;;;;;;15.85;49.34;100163.31;5077523;28;1988;-58
2023/12/21 07:30:35;;;;;;;;;;;;;;;15.88;49.52;100164.66;5072590;28;1099;-61
2023/12/21 07:33:00;;;;;;;;;;;;;;;17.41;45.67;100153.34;5076889;28;1074;-63
2023/12/21 07:35:26;;;;;;;;;;;;;;;16.56;47.50;100165.78;5063652;28;1122;-63
2023/12/21 07:37:51;;;;;;;;;;;;;;;16.11;48.68;100176.03;5069526;28;1240;-64
2023/12/21 07:40:17;;;;;;;;;;;;;;;15.86;49.42;100180.56;5063155;28;1087;-61
2023/12/21 07:42:42;;;;;;;;;;;;;;;16.70;47.47;100169.47;5066938;28;1191;-64
2023/12/21 07:45:08;;;;;;;;;;;;;;;17.20;46.07;100157.47;5077398;28;1143;-64
2023/12/21 07:47:33;;;;;;;;;;;;;;;16.43;48.03;100162.59;5077599;28;1976;-63
2023/12/21 07:49:59;;;;;;;;;;;;;;;15.95;49.23;100167.91;5066615;28;1175;-60
2023/12/21 07:52:25;;;;;;;;;;;;;;;16.33;48.35;100162.69;5072934;28;1182;-60
2023/12/21 07:54:51;;;;;;;;;;;;;;;17.71;45.07;100156.81;5073382;28;1490;-62
2023/12/21 07:57:16;;;;;;;;;;;;;;;16.74;47.02;100156.00;5065241;28;1157;-59
2023/12/21 07:59:42;;;;;;;;;;;;;;;16.16;48.60;100151.28;5077022;28;1110;-61
2023/12/21 08:02:07;;;;;;;;;;;;;;;15.89;49.28;100152.56;5077032;28;1078;-60
2023/12/21 08:04:33;;;;;;;;;;;;;;;15.85;49.67;100152.34;5073767;28;1099;-59
2023/12/21 08:06:58;;;;;;;;;;;;;;;17.36;45.78;100142.44;5073441;28;1971;-59
2023/12/21 08:09:24;;;;;;;;;;;;;;;16.75;47.05;100144.72;5076994;28;1066;-60
2023/12/21 08:11:49;;;;;;;;;;;;;;;16.19;48.65;100134.28;5073131;28;1047;-59
2023/12/21 08:14:15;;;;;;;;;;;;;;;15.99;49.17;100147.03;5066596;28;1099;-60
2023/12/21 08:16:40;;;;;;;;;;;;;;;17.45;45.52;100142.59;5073339;28;1024;-60
2023/12/21 08:19:06;;;;;;;;;;;;;;;16.68;47.48;100151.69;5067331;28;1132;-60
2023/12/21 08:21:32;;;;;;;;;;;;;;;16.22;48.64;100150.97;5076206;28;1105;-60
2023/12/21 08:23:57;;;;;;;;;;;;;;;15.90;49.20;100151.47;5076255;28;1043;-59
2023/12/21 08:26:23;;;;;;;;;;;;;;;16.12;48.97;100150.22;5076043;28;1023;-60
2023/12/21 08:28:49;;;;;;;;;;;;;;;17.56;45.32;100146.03;5068844;28;1906;-60
2023/12/21 08:31:26;;;;;;;;;;;;;;;16.61;47.59;100146.53;5074875;28;1146;-60
2023/12/21 08:33:52;;;;;;;;;;;;;;;16.13;48.64;100136.25;5065076;28;1130;-60
2023/12/21 08:36:18;;;;;;;;;;;;;;;15.81;49.61;100129.31;5075979;28;1084;-60
2023/12/21 08:38:43;;;;;;;;;;;;;;;17.10;46.52;100122.69;5076114;28;1155;-60
2023/12/21 08:41:08;;;;;;;;;;;;;;;16.85;46.89;100121.84;5070778;28;1047;-60
2023/12/21 08:43:36;;;;;;;;;;;;;;;16.26;48.26;100121.03;5061322;28;1028;-60
2023/12/21 08:46:01;;;;;;;;;;;;;;;15.98;49.21;100117.16;5075774;28;1058;-60
2023/12/21 08:48:27;;;;;;;;;;;;;;;16.31;48.57;100115.50;5075559;28;1910;-60
2023/12/21 08:50:53;;;;;;;;;;;;;;;17.51;45.24;100108.41;5076605;28;1012;-61
2023/12/21 08:53:18;;;;;;;;;;;;;;;16.53;47.78;100100.50;5074452;28;1131;-60
2023/12/21 08:55:44;;;;;;;;;;;;;;;16.11;48.80;100096.50;5075558;28;1185;-60
2023/12/21 08:58:10;;;;;;;;;;;;;;;15.81;49.54;100093.69;5076467;28;1039;-60
2023/12/21 09:00:36;;;;;;;;;;;;;;;16.18;48.87;100088.75;5076145;28;1131;-60
2023/12/21 09:03:01;;;;;;;;;;;;;;;17.51;45.62;100097.44;5076110;28;1166;-66
2023/12/21 09:05:27;;;;;;;;;;;;;;;16.49;47.81;100096.69;5066139;28;1123;-64
2023/12/21 09:07:52;;;;;;;;;;;;;;;16.13;48.82;100091.53;5071462;28;1976;-65
2023/12/21 09:10:18;;;;;;;;;;;;;;;15.91;49.40;100090.06;5076138;28;1111;-65
2023/12/21 09:12:43;;;;;;;;;;;;;;;16.62;47.72;100090.53;5076042;28;1134;-60
2023/12/21 09:15:09;;;;;;;;;;;;;;;17.42;45.56;100093.72;5066535;28;1035;-58
2023/12/21 09:17:35;;;;;;;;;;;;;;;16.41;48.01;100104.44;5066213;28;1411;-58
2023/12/21 09:20:00;;;;;;;;;;;;;;;16.07;49.05;100088.00;5073006;28;1379;-59
2023/12/21 09:22:26;;;;;;;;;;;;;;;15.86;49.44;100092.81;5062699;28;1343;-59
2023/12/21 09:24:51;;;;;;;;;;;;;;;16.47;48.27;100093.44;5058002;28;1462;-60
2023/12/21 09:27:17;;;;;;;;;;;;;;;17.39;45.70;100081.38;5066952;28;1988;-60
2023/12/21 09:29:42;;;;;;;;;;;;;;;16.35;48.03;100083.63;5070675;28;1493;-60
2023/12/21 09:32:08;;;;;;;;;;;;;;;16.03;49.10;100075.97;5070965;28;1193;-60
2023/12/21 09:34:34;;;;;;;;;;;;;;;15.77;49.86;100073.41;5069948;28;1414;-60
2023/12/21 09:37:01;;;;;;;;;;;;;;;17.11;46.71;100077.66;5067627;28;1225;-59
2023/12/21 09:39:29;;;;;;;;;;;;;;;16.73;47.25;100082.97;5075388;28;1493;-60
2023/12/21 09:41:55;;;;;;;;;;;;;;;16.18;48.64;100084.06;5074318;28;1418;-60
2023/12/21 09:44:20;;;;;;;;;;;;;;;15.88;49.26;100093.38;5075516;28;1422;-60
2023/12/21 09:46:46;;;;;;;;;;;;;;;15.90;49.45;100088.41;5059633;28;1399;-60
2023/12/21 09:49:15;;;;;;;;;;;;;;;17.42;45.69;100082.72;5060730;28;1988;-60
2023/12/21 09:51:40;;;;;;;;;;;;;;;16.69;47.38;100085.50;5066049;28;1403;-61
2023/12/21 09:54:06;;;;;;;;;;;;;;;16.13;48.77;100084.13;5060041;28;1470;-61
2023/12/21 09:56:32;;;;;;;;;;;;;;;15.84;49.28;100084.88;5060616;28;1253;-60
2023/12/21 09:58:58;;;;;;;;;;;;;;;15.70;49.69;100081.94;5059197;28;1403;-60
2023/12/21 10:01:23;;;;;;;;;;;;;;;17.10;46.45;100073.25;5077728;28;1346;-59
2023/12/21 10:03:49;;;;;;;;;;;;;;;17.05;46.50;100074.13;5076402;28;1482;-60
2023/12/21 10:06:15;;;;;;;;;;;;;;;16.29;48.29;100062.84;5076641;28;1103;-61
2023/12/21 10:08:41;;;;;;;;;;;;;;;16.04;49.15;100061.97;5077670;28;1913;-57
2023/12/21 10:11:07;;;;;;;;;;;;;;;15.70;49.82;100073.72;5077535;28;1145;-58
2023/12/21 10:13:33;;;;;;;;;;;;;;;16.76;47.23;100050.28;5077481;28;1032;-59
2023/12/21 10:15:59;;;;;;;;;;;;;;;17.33;45.79;100057.00;5059753;28;1056;-62
2023/12/21 10:18:26;;;;;;;;;;;;;;;16.36;47.92;100044.13;5066685;28;1136;-61
2023/12/21 10:20:53;;;;;;;;;;;;;;;16.00;49.11;100032.66;5077459;28;1004;-68
2023/12/21 10:23:19;;;;;;;;;;;;;;;16.73;47.49;100017.09;5077617;28;1143;-61
2023/12/21 10:25:45;;;;;;;;;;;;;;;17.04;46.25;100008.50;5078851;28;1048;-63
2023/12/21 10:28:11;;;;;;;;;;;;;;;16.32;48.15;100001.09;5060881;28;1906;-61
2023/12/21 10:30:37;;;;;;;;;;;;;;;15.99;49.00;99985.25;5067790;28;1043;-66
2023/12/21 10:33:03;;;;;;;;;;;;;;;16.91;46.86;99977.09;5077456;28;1051;-66
2023/12/21 10:35:28;;;;;;;;;;;;;;;17.11;46.09;99976.00;5078645;28;1059;-64
2023/12/21 10:37:54;;;;;;;;;;;;;;;16.37;48.04;99981.84;5078917;28;1008;-60
2023/12/21 10:40:21;;;;;;;;;;;;;;;16.09;48.75;99973.38;5078790;28;1151;-62
2023/12/21 10:42:47;;;;;;;;;;;;;;;15.86;49.45;99966.72;5049190;28;1226;-66
2023/12/21 10:45:16;;;;;;;;;;;;;;;17.15;46.40;99962.47;5077974;28;1155;-61
2023/12/21 10:48:02;;;;;;;;;;;;;;;16.86;47.01;99955.19;5078480;28;2237;-63
2023/12/21 10:50:28;;;;;;;;;;;;;;;16.26;48.12;99948.22;5077912;28;1661;-62
2023/12/21 10:52:54;;;;;;;;;;;;;;;15.87;49.28;99951.91;5078579;28;1024;-63
2023/12/21 10:55:19;;;;;;;;;;;;;;;16.25;48.62;99952.88;5072293;28;1016;-60
2023/12/21 10:57:45;;;;;;;;;;;;;;;17.60;45.21;99949.97;5055979;28;1065;-62
2023/12/21 11:00:17;;;;;;;;;;;;;;;16.68;47.22;99960.34;5078432;28;1139;-60
2023/12/21 11:02:45;;;;;;;;;;;;;;;16.16;48.85;99953.78;5078235;28;1087;-66
2023/12/21 11:05:10;;;;;;;;;;;;;;;15.97;49.17;99967.44;5078289;28;1110;-59
2023/12/21 11:07:36;;;;;;;;;;;;;;;15.89;49.65;99950.53;5076009;28;1909;-60
2023/12/21 11:10:02;;;;;;;;;;;;;;;17.41;45.85;99955.47;5078378;28;1031;-62
2023/12/21 11:12:28;;;;;;;;;;;;;;;16.76;47.00;99962.44;5075909;28;1145;-61
2023/12/21 11:14:53;;;;;;;;;;;;;;;16.11;48.75;99956.63;5072791;28;870;-62
2023/12/21 11:17:19;;;;;;;;;;;;;;;15.90;49.35;99952.13;5056775;28;1041;-62
2023/12/21 11:19:44;;;;;;;;;;;;;;;15.90;49.58;99948.59;5067708;28;939;-63
2023/12/21 11:22:10;;;;;;;;;;;;;;;17.33;45.73;99936.91;5076888;28;1020;-63
2023/12/21 11:24:35;;;;;;;;;;;;;;;16.68;47.43;99952.09;5077259;28;1129;-62
2023/12/21 11:27:01;;;;;;;;;;;;;;;16.19;48.31;99940.31;5075167;28;1998;-63
2023/12/21 11:29:28;;;;;;;;;;;;;;;15.96;49.14;99944.66;5055001;28;1057;-61
2023/12/21 11:31:54;;;;;;;;;;;;;;;17.44;45.61;99930.13;5058222;28;1159;-64
2023/12/21 11:34:24;;;;;;;;;;;;;;;16.64;47.20;99940.06;5068141;28;1070;-63
2023/12/21 11:36:50;;;;;;;;;;;;;;;16.13;48.52;99932.44;5072911;28;1178;-62
2023/12/21 11:39:16;;;;;;;;;;;;;;;15.91;49.26;99928.28;5076799;28;1083;-62
2023/12/21 11:41:49;;;;;;;;;;;;;;;16.64;47.44;99920.84;5051106;28;1199;-64
2023/12/21 11:44:15;;;;;;;;;;;;;;;17.15;45.83;99910.28;5072185;28;1063;-66
2023/12/21 11:46:40;;;;;;;;;;;;;;;16.30;48.26;99913.59;5074236;28;1276;-65
2023/12/21 11:49:07;;;;;;;;;;;;;;;16.00;48.99;99917.50;5057638;28;1898;-65
2023/12/21 11:51:33;;;;;;;;;;;;;;;15.90;49.39;99923.91;5074466;28;1383;-62
2023/12/21 11:54:04;;;;;;;;;;;;;;;17.42;45.62;99920.59;5071587;28;1134;-58
2023/12/21 11:56:33;;;;;;;;;;;;;;;16.71;47.18;99915.81;5067586;28;1418;-62
2023/12/21 11:58:59;;;;;;;;;;;;;;;16.19;48.44;99906.59;5075790;28;1296;-62
2023/12/21 12:01:25;;;;;;;;;;;;;;;15.83;49.48;99907.00;5076491;28;1379;-63
2023/12/21 12:03:51;;;;;;;;;;;;;;;16.46;48.02;99891.47;5064615;28;1123;-64
2023/12/21 12:06:17;;;;;;;;;;;;;;;17.56;45.27;99891.19;5074143;28;1118;-63
2023/12/21 12:08:43;;;;;;;;;;;;;;;16.54;47.46;99893.56;5072621;28;1918;-64
2023/12/21 12:11:08;;;;;;;;;;;;;;;16.13;48.40;99894.88;5076351;28;1102;-63
2023/12/21 12:13:34;;;;;;;;;;;;;;;15.86;49.27;99895.44;5075946;28;1089;-63
2023/12/21 12:15:59;;;;;;;;;;;;;;;17.22;46.31;99905.22;5076348;28;1391;-63
2023/12/21 12:18:25;;;;;;;;;;;;;;;16.88;46.57;99909.00;5067649;28;1042;-62
2023/12/21 12:20:51;;;;;;;;;;;;;;;16.16;48.33;99913.50;5067730;28;1142;-64
2023/12/21 12:23:17;;;;;;;;;;;;;;;15.92;48.91;99918.94;5076117;28;1213;-62
2023/12/21 12:25:42;;;;;;;;;;;;;;;16.68;47.32;99924.66;5052111;28;1228;-63
2023/12/21 12:28:08;;;;;;;;;;;;;;;17.41;45.25;99914.25;5058211;28;1897;-63
2023/12/21 12:30:36;;;;;;;;;;;;;;;16.50;47.74;99923.50;5072762;28;1347;-62
2023/12/21 12:33:05;;;;;;;;;;;;;;;16.14;48.32;99923.13;5068572;28;1111;-63
2023/12/21 12:35:35;;;;;;;;;;;;;;;15.86;49.35;99925.59;5057928;28;1067;-65
2023/12/21 12:38:00;;;;;;;;;;;;;;;16.71;47.44;99940.53;5058151;28;1136;-65
2023/12/21 12:40:26;;;;;;;;;;;;;;;17.25;45.54;99934.84;5076149;28;1131;-62
2023/12/21 12:42:51;;;;;;;;;;;;;;;16.45;47.65;99944.69;5071239;28;1104;-63
2023/12/21 12:45:18;;;;;;;;;;;;;;;16.01;48.79;99930.91;5075402;28;1104;-64